Flight Track Log - Related Links

Times and Time Zones

All times are in EDT time to prevent confusion due to time zone crossing. See the RPA3392 flight status page for this flight to view local times or setup timezone preferences in your user account.

Time Position Orientation Groundspeed Altitude Reporting Facility
EDT Latitude Longitude Course Direction KTS MPH feet Rate Location/Type
Fri 10:10:25 PM 38.8833 -77.0667 83° East 151 174 2,200  Level Potomac TRACON
Fri 10:12:00 PM 39.0214 -76.5524 67° East  Level FlightAware Approximate
Fri 10:12:04 PM 38.9533 -77.1506 317° Northwest 211 243 5,700  Level Washington Center
Fri 10:13:00 PM 39.0678 -76.4307 61° Northeast  Level FlightAware Approximate
Fri 10:13:04 PM 39.0111 -77.1864 334° Northwest 222 255 8,000  Level Washington Center
Fri 10:14:00 PM 39.1167 -76.3113 90° East  Level FlightAware Approximate
Fri 10:14:02 PM 39.0436 -77.0989 64° Northeast 166 191 10,500  Level Washington Center
Fri 10:15:00 PM 39.1524 -76.1926 83° East  Level FlightAware Approximate
Fri 10:15:03 PM 39.0553 -76.9842 83° East 222 255 12,400  Level Washington Center
Fri 10:16:03 PM 39.0714 -76.8669 80° East 284 327 14,300 1,750 Climbing Washington Center
Fri 10:17:03 PM 39.0850 -76.7442 82° East 320 368 15,900 1,636 Climbing Washington Center
Fri 10:18:04 PM 39.1008 -76.6161 81° East 345 397 17,600 1,563 Climbing Washington Center
Fri 10:19:02 PM 39.1164 -76.4850 81° East 358 412 19,000 1,475 Climbing Washington Center
Fri 10:20:02 PM 39.1319 -76.3489 82° East 374 430 20,500 1,350 Climbing Washington Center
Fri 10:21:02 PM 39.1619 -76.2153 74° East 379 436 21,700 1,190 Climbing Washington Center
Fri 10:22:03 PM 39.2228 -76.1086 54° Northeast 379 436 22,900 836 Climbing Washington Center
Fri 10:23:04 PM 39.2858 -75.9939 55° Northeast 390 449 23,400 706 Climbing Washington Center
Fri 10:24:02 PM 39.3486 -75.8681 57° Northeast 401 461 24,300 814 Climbing Washington Center
Fri 10:25:02 PM 39.4133 -75.7419 56° Northeast 411 473 25,000 347 Climbing Washington Center
Fri 10:26:03 PM 39.4822 -75.6103 56° Northeast 426 490 25,000  Level Washington Center
Fri 10:27:02 PM 39.5511 -75.4758 56° Northeast 437 503 25,000  Level Washington Center
Fri 10:28:03 PM 39.6194 -75.3411 57° Northeast 437 503 25,000  Level Washington Center
Fri 10:29:04 PM 39.7006 -75.2167 50° Northeast 442 509 25,000  Level Washington Center
Fri 10:29:28 PM 39.7425 -75.1525 50° Northeast 453 521 25,000  Level New York Center
Fri 10:30:29 PM 39.8281 -75.0308 47° Northeast 462 532 25,000  Level New York Center
Fri 10:31:27 PM 39.9158 -74.9092 47° Northeast 471 542 25,000  Level New York Center
Fri 10:32:28 PM 40.0058 -74.7817 47° Northeast 462 532 25,000  Level New York Center
Fri 10:33:26 PM 40.0933 -74.6592 47° Northeast 462 532 25,000  Level New York Center
Fri 10:34:29 PM 40.1808 -74.5336 48° Northeast 462 532 25,000  Level New York Center
Fri 10:35:28 PM 40.2781 -74.4164 43° Northeast 462 532 25,000 -300 Level New York Center
Fri 10:36:29 PM 40.3817 -74.3047 39° Northeast 462 532 24,400 -335 Descending New York Center
Fri 10:38:27 PM 40.5836 -74.0825 40° Northeast 476 548 24,000 -126 Descending Boston Center
Fri 10:39:39 PM 40.7042 -73.9594 38° Northeast 466 536 24,000  Level Boston Center
Fri 10:40:39 PM 40.8056 -73.8494 39° Northeast 466 536 24,000  Level Boston Center
Fri 10:41:39 PM 40.9008 -73.7306 43° Northeast 466 536 24,000 -150 Level Boston Center
Fri 10:42:39 PM 40.9958 -73.6117 43° Northeast 466 536 23,700 -400 Descending Boston Center
Fri 10:43:39 PM 41.0825 -73.5086 42° Northeast 461 531 23,200 -600 Descending Boston Center
Fri 10:44:39 PM 41.1772 -73.3942 42° Northeast 455 524 22,500 -650 Descending Boston Center
Fri 10:45:39 PM 41.2678 -73.2631 47° Northeast 442 509 21,900 -600 Descending Boston Center
Fri 10:46:39 PM 41.3681 -73.2172 19° North 407 468 21,300 -600 Descending Boston Center
Fri 10:47:39 PM 41.4847 -73.2547 346° North 390 449 20,700 -550 Descending Boston Center
Fri 10:48:39 PM 41.6031 -73.3147 339° North 395 455 20,200 -1,050 Descending Boston Center
Fri 10:49:39 PM 41.7028 -73.3550 343° North 400 460 18,600 -2,100 Descending Boston Center
Fri 10:50:39 PM 41.8169 -73.4039 342° North 400 460 16,000 -2,450 Descending Boston Center
Fri 10:51:39 PM 41.9042 -73.4386 343° North 371 427 13,700 -2,200 Descending Boston Center
Fri 10:52:09 PM 41.9581 -73.4647 340° North 348 400 12,700 -1,900 Descending Boston Center
Fri 10:52:39 PM 41.9997 -73.4819 343° North 347 399 11,800 -1,133 Descending Boston Center
Fri 10:53:39 PM 42.0828 -73.5197 341° North 322 371 11,000 -400 Descending Boston Center
Fri 10:54:39 PM 42.1722 -73.5186 North 315 362 11,000 -100 Level Boston Center
Fri 10:55:39 PM 42.2511 -73.5619 338° Northwest 308 354 10,800 -800 Descending Boston Center
Fri 10:56:54 PM 42.3358 -73.6253 331° Northwest 285 328 9,200 -1,300 Descending Boston Center
Fri 10:57:39 PM 42.3875 -73.6656 330° Northwest 282 325 8,200 -1,600 Descending Boston Center
Fri 10:58:39 PM 42.4453 -73.7117 330° Northwest 271 312 6,400 -1,700 Descending Boston Center
Fri 10:59:39 PM 42.5114 -73.7639 330° Northwest 260 299 4,800 -1,250 Descending Boston Center
Fri 11:00:39 PM 42.5528 -73.7958 330° Northwest 215 247 3,900 -905 Descending Boston Center
Fri 11:01:45 PM 42.6047 -73.8025 355° North 156 180 2,900 -700 Descending Boston Center
Fri 11:02:39 PM 42.6444 -73.8092 353° North 161 185 2,500 -444 Descending Boston Center

Login

Don't have an account? Register now (free) for customized features, flight alerts, and more!